Lovetch, Bulgaria
Current Conditions -  °F | °C
As of 8:00 PM on Thursday 23 Oct 2014 (Local Time) from LBGO Reporting Station
Moderate Rain Moderate Rain  
Wind Chill: 42°   Ceiling: 3300
Heat Index: 45°   Visibility: 6mi
Dew Point: 45°   Wind: 4mph
Humidity: 100%   Direction: 90°E
Pressure: 29.65"   Gusts: NA
Location:  43.13°N, 24.72°E
Report Text: LBGO 231700Z 09002MPS 9000 RA SCT018 OVC033 07/07 Q1004 NOSIG
Loading
Personal Weather Stations






























Interactive Weather Map
Tropical Storm Tracking
New forecast layout! Learn more

10-Day Weather Forecast

Advertisements
Track Severe Weather on mobile